TimeCST,TemperatureF,Dew PointF,Humidity,Sea Level PressureIn,VisibilityMPH,Wind Direction,Wind SpeedMPH,Gust SpeedMPH,PrecipitationIn,Events,Conditions,WindDirDegrees,DateUTC
12:54 AM,12.0,9.0,88,30.39,10.0,Calm,Calm,-,N/A,,Clear,0,2013-01-23 06:54:00
1:54 AM,10.9,8.1,88,30.39,8.0,Calm,Calm,-,N/A,,Clear,0,2013-01-23 07:54:00
2:54 AM,10.9,8.1,88,30.37,8.0,Calm,Calm,-,N/A,,Clear,0,2013-01-23 08:54:00
3:54 AM,10.0,6.1,84,30.35,8.0,Calm,Calm,-,N/A,,Clear,0,2013-01-23 09:54:00
4:54 AM,10.9,8.1,88,30.34,8.0,Calm,Calm,-,N/A,,Clear,0,2013-01-23 10:54:00
5:54 AM,10.0,8.1,92,30.34,7.0,ENE,3.5,-,N/A,,Clear,70,2013-01-23 11:54:00
6:54 AM,10.9,7.0,84,30.33,7.0,East,4.6,-,N/A,,Clear,90,2013-01-23 12:54:00
7:54 AM,14.0,10.0,84,30.32,5.0,East,4.6,-,N/A,,Clear,90,2013-01-23 13:54:00
8:54 AM,18.0,12.9,81,30.31,7.0,ESE,3.5,-,N/A,,Clear,120,2013-01-23 14:54:00
9:54 AM,23.0,14.0,68,30.30,10.0,SSW,4.6,-,N/A,,Clear,200,2013-01-23 15:54:00
10:54 AM,26.1,16.0,66,30.27,10.0,SW,6.9,-,N/A,,Clear,220,2013-01-23 16:54:00
11:54 AM,30.0,18.0,61,30.25,10.0,West,4.6,-,N/A,,Clear,270,2013-01-23 17:54:00
12:54 PM,33.1,19.9,59,30.21,10.0,SSW,4.6,-,N/A,,Clear,210,2013-01-23 18:54:00
1:54 PM,35.1,19.9,54,30.18,10.0,WSW,6.9,-,N/A,,Clear,240,2013-01-23 19:54:00
3:54 PM,39.9,21.9,49,30.17,10.0,West,5.8,-,N/A,,Clear,280,2013-01-23 21:54:00
4:54 PM,39.0,21.9,50,30.17,10.0,Calm,Calm,-,N/A,,Clear,0,2013-01-23 22:54:00
5:54 PM,37.0,21.0,52,30.19,10.0,Calm,Calm,-,N/A,,Clear,0,2013-01-23 23:54:00
6:54 PM,34.0,21.9,61,30.22,10.0,NW,5.8,-,N/A,,Clear,310,2013-01-24 00:54:00
7:54 PM,34.0,21.0,59,30.25,10.0,NNW,11.5,18.4,N/A,,Clear,340,2013-01-24 01:54:00
8:54 PM,33.1,19.0,56,30.27,10.0,NNW,10.4,-,N/A,,Clear,340,2013-01-24 02:54:00
9:54 PM,30.9,18.0,59,30.31,10.0,North,9.2,-,N/A,,Clear,350,2013-01-24 03:54:00
10:54 PM,28.0,16.0,61,30.35,10.0,NNW,11.5,-,N/A,,Clear,330,2013-01-24 04:54:00
11:54 PM,27.0,15.1,61,30.38,10.0,NNW,9.2,-,N/A,,Clear,330,2013-01-24 05:54:00